Time;durP1;ratioP1;P1;durP2;ratioP2;P2;SDS_P1;SDS_P2;PMS_P1;PMS_P2;Temp;Humidity;BMP_temperature;BMP_pressure;BME280_temperature;BME280_humidity;BME280_pressure;Samples;Min_cycle;Max_cycle;Signal;HPM_P1;HPM_P2
2021/01/16 00:01:54;;;;;;;19.40;10.88;;;1.10;99.90;;;;;;5046015;28;20207;-92
2021/01/16 00:04:24;;;;;;;15.55;10.38;;;1.10;99.90;;;;;;5058839;28;20190;-91
2021/01/16 00:06:50;;;;;;;17.63;12.10;;;1.10;99.90;;;;;;5058751;28;20250;-90
2021/01/16 00:09:17;;;;;;;23.35;12.80;;;0.90;99.90;;;;;;5056914;28;20218;-87
2021/01/16 00:11:43;;;;;;;14.70;11.32;;;1.00;99.90;;;;;;5055580;28;20171;-91
2021/01/16 00:14:11;;;;;;;17.70;10.90;;;1.00;99.90;;;;;;5041809;28;20223;-93
2021/01/16 00:16:37;;;;;;;10.60;8.63;;;1.00;99.90;;;;;;5034575;28;20706;-92
2021/01/16 00:19:04;;;;;;;19.48;10.65;;;1.10;99.90;;;;;;5034236;28;20297;-92
2021/01/16 00:21:31;;;;;;;19.17;12.32;;;0.90;99.90;;;;;;5036364;28;20710;-93
2021/01/16 00:23:57;;;;;;;16.65;12.88;;;1.00;99.90;;;;;;5037368;28;20643;-92
2021/01/16 00:26:24;;;;;;;15.40;10.95;;;0.90;99.90;;;;;;5034430;28;20956;-92
2021/01/16 00:28:50;;;;;;;19.45;10.57;;;1.00;99.90;;;;;;5038575;28;20301;-93
2021/01/16 00:31:16;;;;;;;18.05;9.75;;;1.00;99.90;;;;;;5037656;28;20302;-89
2021/01/16 00:33:43;;;;;;;14.38;9.55;;;1.00;99.90;;;;;;5037834;28;20241;-92
2021/01/16 00:36:11;;;;;;;15.07;9.38;;;0.90;99.90;;;;;;5038096;28;20252;-93
2021/01/16 00:38:41;;;;;;;17.33;9.80;;;1.00;99.90;;;;;;5038519;28;20619;-94
2021/01/16 00:41:08;;;;;;;17.50;9.80;;;1.20;99.90;;;;;;5037938;28;20290;-94
2021/01/16 00:43:34;;;;;;;16.30;10.40;;;1.20;99.90;;;;;;5038271;28;20191;-93
2021/01/16 00:46:01;;;;;;;14.55;9.57;;;1.10;99.90;;;;;;5037605;28;20348;-93
2021/01/16 00:48:27;;;;;;;17.35;10.82;;;1.10;99.90;;;;;;5038439;28;20266;-96
2021/01/16 00:50:55;;;;;;;17.27;11.68;;;1.00;99.90;;;;;;5038005;28;20222;-92
2021/01/16 00:53:22;;;;;;;16.50;8.65;;;1.00;99.90;;;;;;5037560;28;20300;-92
2021/01/16 00:55:50;;;;;;;15.43;9.80;;;1.00;99.90;;;;;;5038223;28;20219;-92
2021/01/16 00:58:19;;;;;;;16.10;8.25;;;1.10;99.90;;;;;;5039590;28;20253;-93
2021/01/16 01:00:47;;;;;;;18.15;9.98;;;1.10;99.90;;;;;;5057493;28;20198;-88
2021/01/16 01:03:15;;;;;;;18.40;10.65;;;1.20;99.90;;;;;;5058830;28;20207;-94
2021/01/16 01:05:42;;;;;;;15.35;9.93;;;1.00;99.90;;;;;;5053276;28;20202;-95
2021/01/16 01:08:09;;;;;;;14.25;9.75;;;0.90;99.90;;;;;;5047525;28;20226;-92
2021/01/16 01:10:38;;;;;;;15.50;9.35;;;1.00;99.90;;;;;;5058598;28;20203;-86
2021/01/16 01:13:05;;;;;;;18.25;9.93;;;1.10;99.90;;;;;;5059693;28;20203;-89
2021/01/16 01:15:32;;;;;;;17.98;11.30;;;1.10;99.90;;;;;;5023049;28;20289;-91
2021/01/16 01:18:00;;;;;;;13.30;8.90;;;1.10;99.90;;;;;;5037686;28;20202;-93
2021/01/16 01:20:27;;;;;;;15.45;9.07;;;1.00;99.90;;;;;;5041339;28;20571;-94
2021/01/16 01:22:54;;;;;;;16.58;11.38;;;1.00;99.90;;;;;;5035985;28;20805;-92
2021/01/16 01:25:20;;;;;;;13.32;9.27;;;0.90;99.90;;;;;;5037654;28;20294;-93
2021/01/16 01:27:50;;;;;;;14.50;9.43;;;0.90;99.90;;;;;;5039862;28;20291;-93
2021/01/16 01:30:18;;;;;;;18.55;9.63;;;1.00;99.90;;;;;;5037682;28;20210;-92
2021/01/16 01:32:45;;;;;;;17.38;10.25;;;0.90;99.90;;;;;;5037182;28;20246;-91
2021/01/16 01:35:12;;;;;;;17.38;10.55;;;1.00;99.90;;;;;;5036518;28;20249;-92
2021/01/16 01:37:43;;;;;;;21.60;11.00;;;1.00;99.90;;;;;;5036331;28;20210;-93
2021/01/16 01:40:11;;;;;;;20.08;11.40;;;1.00;99.90;;;;;;5036533;28;20199;-92
2021/01/16 01:42:37;;;;;;;16.42;8.68;;;1.00;99.90;;;;;;5036520;28;20230;-92
2021/01/16 01:45:05;;;;;;;13.38;10.52;;;1.00;99.90;;;;;;5038719;28;20306;-94
2021/01/16 01:47:35;;;;;;;18.58;10.25;;;0.90;99.90;;;;;;5036015;28;20242;-94
2021/01/16 01:50:02;;;;;;;16.80;10.38;;;0.90;99.90;;;;;;5036749;28;20676;-93
2021/01/16 01:52:29;;;;;;;22.73;11.07;;;0.90;99.90;;;;;;5036912;28;20237;-92
2021/01/16 01:54:57;;;;;;;18.55;9.82;;;0.90;99.90;;;;;;5036962;28;20274;-94
2021/01/16 01:57:25;;;;;;;14.90;9.35;;;0.90;99.90;;;;;;5035137;28;20636;-93
2021/01/16 01:59:54;;;;;;;21.02;10.57;;;0.90;99.90;;;;;;5036389;28;20245;-90
2021/01/16 02:02:22;;;;;;;23.00;10.85;;;0.90;99.90;;;;;;5035159;28;20341;-91
2021/01/16 02:04:52;;;;;;;17.38;11.02;;;0.90;99.90;;;;;;5036933;28;20235;-92
2021/01/16 02:07:29;;;;;;;14.48;10.38;;;0.90;99.90;;;;;;5036700;28;20230;-93
2021/01/16 02:09:56;;;;;;;20.25;10.82;;;0.90;99.90;;;;;;5036404;28;20239;-94
2021/01/16 02:12:24;;;;;;;17.33;10.18;;;0.90;99.90;;;;;;5036776;28;20191;-94
2021/01/16 02:15:06;;;;;;;15.73;9.35;;;0.90;99.90;;;;;;5036355;28;20238;-93
2021/01/16 02:17:38;;;;;;;17.02;10.07;;;0.90;99.90;;;;;;5034587;28;20213;-93
2021/01/16 02:20:14;;;;;;;17.27;9.68;;;0.80;99.90;;;;;;5036134;28;20294;-90
2021/01/16 02:22:52;;;;;;;14.50;9.15;;;0.80;99.90;;;;;;5034698;28;20270;-93
2021/01/16 02:25:30;;;;;;;14.13;9.27;;;0.80;99.90;;;;;;5036038;28;20229;-90
2021/01/16 02:28:02;;;;;;;12.40;9.35;;;0.80;99.90;;;;;;5035901;28;20639;-93
2021/01/16 02:30:33;;;;;;;18.23;10.43;;;0.80;99.90;;;;;;5036933;28;20293;-92
2021/01/16 02:33:02;;;;;;;13.05;9.18;;;0.90;99.90;;;;;;5029158;28;20203;-91
2021/01/16 02:35:31;;;;;;;21.85;12.15;;;0.90;99.90;;;;;;5055749;28;20183;-89
2021/01/16 02:38:17;;;;;;;16.13;9.80;;;0.90;99.90;;;;;;5057335;28;20246;-88
2021/01/16 02:40:51;;;;;;;20.63;10.02;;;0.90;99.90;;;;;;5057476;28;20214;-91
2021/01/16 02:43:32;;;;;;;19.50;10.63;;;0.90;99.90;;;;;;5021784;28;20231;-91
2021/01/16 02:46:26;;;;;;;16.85;10.50;;;0.90;99.90;;;;;;5019860;28;20261;-94
2021/01/16 02:49:10;;;;;;;14.85;9.43;;;0.90;99.90;;;;;;5013650;28;20253;-92
2021/01/16 02:51:41;;;;;;;19.08;8.75;;;1.00;99.90;;;;;;5015224;28;20604;-92
2021/01/16 02:54:10;;;;;;;22.45;11.18;;;0.90;99.90;;;;;;5015703;28;20668;-91
2021/01/16 02:56:38;;;;;;;15.32;9.70;;;0.90;99.90;;;;;;5016020;28;20214;-89
2021/01/16 02:59:07;;;;;;;20.10;11.23;;;1.00;99.90;;;;;;5013014;28;20246;-93
2021/01/16 03:01:40;;;;;;;17.90;10.15;;;0.90;99.90;;;;;;5026085;28;20293;-91
2021/01/16 03:04:07;;;;;;;19.52;11.32;;;0.90;99.90;;;;;;5033540;28;20229;-90
2021/01/16 03:06:35;;;;;;;17.50;9.93;;;0.90;99.90;;;;;;5034395;28;20286;-94
2021/01/16 03:09:04;;;;;;;23.70;10.70;;;0.90;99.90;;;;;;5034558;28;20309;-92
2021/01/16 03:11:33;;;;;;;15.30;8.95;;;0.90;99.90;;;;;;5034323;28;20265;-93
2021/01/16 03:14:04;;;;;;;17.27;10.02;;;0.90;99.90;;;;;;5034160;28;20292;-90
2021/01/16 03:16:38;;;;;;;24.40;12.13;;;0.90;99.90;;;;;;5031806;28;20233;-91
2021/01/16 03:19:08;;;;;;;17.50;10.63;;;0.90;99.90;;;;;;5035290;28;20198;-92
2021/01/16 03:21:39;;;;;;;22.88;11.73;;;0.90;99.90;;;;;;5034736;28;20234;-91
2021/01/16 03:24:07;;;;;;;19.67;11.55;;;0.90;99.90;;;;;;5049412;28;20239;-90
2021/01/16 03:26:34;;;;;;;16.70;10.52;;;0.90;99.90;;;;;;5028213;28;20207;-92
2021/01/16 03:29:00;;;;;;;19.85;10.73;;;0.90;99.90;;;;;;5015775;28;20230;-94
2021/01/16 03:31:27;;;;;;;17.95;10.35;;;1.00;99.90;;;;;;5015557;28;20234;-91
2021/01/16 03:33:54;;;;;;;20.23;11.65;;;0.90;99.90;;;;;;5015363;28;20243;-91
2021/01/16 03:36:20;;;;;;;18.42;11.23;;;0.90;99.90;;;;;;5022007;28;20287;-92
2021/01/16 03:38:47;;;;;;;15.98;10.82;;;0.90;99.90;;;;;;5034886;28;20239;-93
2021/01/16 03:41:13;;;;;;;22.08;11.05;;;0.90;99.90;;;;;;5036184;28;20202;-92
2021/01/16 03:43:39;;;;;;;19.23;11.77;;;1.00;99.90;;;;;;5037363;28;20240;-94
2021/01/16 03:46:06;;;;;;;17.88;11.27;;;1.00;99.90;;;;;;5035340;28;20231;-91
2021/01/16 03:48:35;;;;;;;19.52;10.95;;;0.90;99.90;;;;;;5037027;28;20265;-92
2021/01/16 03:51:02;;;;;;;19.90;13.27;;;1.00;99.90;;;;;;5036138;28;20209;-93
2021/01/16 03:53:30;;;;;;;23.42;12.07;;;1.10;99.90;;;;;;5036672;28;20225;-93
2021/01/16 03:55:56;;;;;;;21.88;13.38;;;1.20;99.90;;;;;;5035379;28;20229;-94
2021/01/16 03:58:22;;;;;;;20.10;11.95;;;1.00;99.90;;;;;;5036427;28;20237;-92
2021/01/16 04:00:49;;;;;;;21.42;12.20;;;1.00;99.90;;;;;;5035847;28;20249;-92
2021/01/16 04:03:15;;;;;;;20.38;11.30;;;1.00;99.90;;;;;;5034509;28;20869;-93
2021/01/16 04:05:42;;;;;;;19.45;11.65;;;1.00;99.90;;;;;;5037038;28;20241;-93
2021/01/16 04:08:09;;;;;;;19.48;12.48;;;1.00;99.90;;;;;;5040032;28;20233;-92
2021/01/16 04:10:35;;;;;;;18.73;11.35;;;0.90;99.90;;;;;;5056706;28;20492;-93
2021/01/16 04:13:02;;;;;;;16.88;9.88;;;0.90;99.90;;;;;;5056729;28;20187;-91
2021/01/16 04:15:28;;;;;;;15.38;9.90;;;1.00;99.90;;;;;;5047871;28;20199;-92
2021/01/16 04:17:55;;;;;;;20.17;12.35;;;1.00;99.90;;;;;;5050928;28;20211;-91
2021/01/16 04:20:23;;;;;;;19.65;11.02;;;1.10;99.90;;;;;;5038031;28;20199;-91
2021/01/16 04:22:50;;;;;;;23.73;11.95;;;1.20;99.90;;;;;;5038549;28;20239;-93
2021/01/16 04:25:18;;;;;;;21.65;12.85;;;1.10;99.90;;;;;;5038412;28;20188;-89
2021/01/16 04:27:44;;;;;;;18.33;11.63;;;1.00;99.90;;;;;;5038439;28;20184;-90
2021/01/16 04:30:12;;;;;;;19.52;12.38;;;1.00;99.90;;;;;;5022530;28;20227;-94
2021/01/16 04:32:39;;;;;;;19.20;12.45;;;1.00;99.90;;;;;;5017519;28;20211;-92
2021/01/16 04:35:07;;;;;;;17.58;11.63;;;1.00;99.90;;;;;;5014193;28;20219;-92
2021/01/16 04:37:33;;;;;;;19.38;11.90;;;1.00;99.90;;;;;;5013633;28;20242;-93
2021/01/16 04:39:59;;;;;;;19.95;11.85;;;1.00;99.90;;;;;;5015262;28;20739;-94
2021/01/16 04:42:27;;;;;;;22.17;12.13;;;1.00;99.90;;;;;;5013717;28;20226;-93
2021/01/16 04:44:58;;;;;;;21.35;13.32;;;1.10;99.90;;;;;;5016625;28;20564;-93
2021/01/16 04:47:29;;;;;;;22.85;11.35;;;1.00;99.90;;;;;;5015285;28;20659;-92
2021/01/16 04:49:59;;;;;;;18.38;11.45;;;0.90;99.90;;;;;;5019721;28;20247;-91
2021/01/16 04:52:29;;;;;;;26.75;11.63;;;1.00;99.90;;;;;;5015730;28;20268;-93
2021/01/16 04:54:56;;;;;;;17.40;11.45;;;1.00;99.90;;;;;;5015058;28;20265;-92
2021/01/16 04:57:23;;;;;;;19.70;12.90;;;1.00;99.90;;;;;;5015012;28;20188;-93
2021/01/16 04:59:51;;;;;;;19.42;12.07;;;0.90;99.90;;;;;;5015343;28;20683;-94
2021/01/16 05:02:22;;;;;;;19.73;11.38;;;1.00;99.90;;;;;;5028002;28;20230;-92
2021/01/16 05:04:50;;;;;;;20.00;12.95;;;1.10;99.90;;;;;;5036083;28;20294;-93
2021/01/16 05:07:18;;;;;;;20.15;12.30;;;1.00;99.90;;;;;;5036536;28;20242;-94
2021/01/16 05:09:45;;;;;;;19.70;11.65;;;1.00;99.90;;;;;;5037499;28;20326;-93
2021/01/16 05:12:37;;;;;;;24.58;11.13;;;0.90;99.90;;;;;;5037399;28;20241;-92
2021/01/16 05:15:06;;;;;;;21.05;11.82;;;1.00;99.90;;;;;;5012499;28;20262;-93
2021/01/16 05:17:40;;;;;;;25.45;14.40;;;0.90;99.90;;;;;;5035918;28;20203;-93
2021/01/16 05:20:08;;;;;;;18.15;10.75;;;1.00;99.90;;;;;;5024824;28;20227;-90
2021/01/16 05:22:35;;;;;;;18.98;11.88;;;1.00;99.90;;;;;;5017164;28;20298;-92
2021/01/16 05:25:04;;;;;;;17.98;10.82;;;1.00;99.90;;;;;;5016904;28;20727;-91
2021/01/16 05:27:34;;;;;;;26.15;12.80;;;0.90;99.90;;;;;;5035628;28;20310;-92
2021/01/16 05:30:02;;;;;;;20.83;11.65;;;0.90;99.90;;;;;;5038645;28;20226;-94
2021/01/16 05:32:31;;;;;;;19.38;12.75;;;0.90;99.90;;;;;;5037388;28;20278;-93
2021/01/16 05:35:13;;;;;;;22.55;11.68;;;0.80;99.90;;;;;;5037916;28;20210;-93
2021/01/16 05:37:43;;;;;;;20.50;12.32;;;0.90;99.90;;;;;;5037535;28;20203;-93
2021/01/16 05:40:10;;;;;;;23.02;12.60;;;1.00;99.90;;;;;;5036913;28;20294;-90
2021/01/16 05:42:38;;;;;;;26.55;13.05;;;1.00;99.90;;;;;;5038440;28;20677;-94
2021/01/16 05:45:07;;;;;;;20.92;12.60;;;1.00;99.90;;;;;;5041369;28;20195;-89
2021/01/16 05:47:35;;;;;;;22.77;12.68;;;1.00;99.90;;;;;;5052677;28;20202;-93
2021/01/16 05:50:03;;;;;;;21.92;13.15;;;1.00;99.90;;;;;;5040947;28;20250;-94
2021/01/16 05:52:30;;;;;;;17.02;10.05;;;0.90;99.90;;;;;;5037142;28;20233;-94
2021/01/16 05:55:00;;;;;;;28.80;13.90;;;0.90;99.90;;;;;;5037145;28;20195;-92
2021/01/16 05:57:27;;;;;;;19.88;12.18;;;0.90;99.90;;;;;;5037752;28;20219;-94
2021/01/16 05:59:59;;;;;;;23.40;12.88;;;1.00;99.90;;;;;;5037050;28;20199;-94
2021/01/16 06:02:29;;;;;;;19.67;11.57;;;1.00;99.90;;;;;;5035552;28;20206;-93
2021/01/16 06:04:57;;;;;;;25.08;13.18;;;1.00;99.90;;;;;;5036349;28;20340;-92
2021/01/16 06:07:25;;;;;;;23.98;14.73;;;0.90;99.90;;;;;;5036436;28;20587;-92
2021/01/16 06:09:52;;;;;;;28.42;13.90;;;0.80;99.90;;;;;;5035915;28;20226;-92
2021/01/16 06:12:20;;;;;;;20.98;11.40;;;0.80;99.90;;;;;;5019357;28;20242;-90
2021/01/16 06:14:48;;;;;;;27.27;13.88;;;0.80;99.90;;;;;;5018423;28;20214;-89
2021/01/16 06:17:15;;;;;;;23.80;11.88;;;0.90;99.90;;;;;;5015573;28;20253;-90
2021/01/16 06:19:43;;;;;;;25.52;12.45;;;0.90;99.90;;;;;;5014740;28;20243;-92
2021/01/16 06:22:12;;;;;;;21.58;12.55;;;0.90;99.90;;;;;;5015793;28;20670;-89
2021/01/16 06:24:39;;;;;;;20.05;12.32;;;0.90;99.90;;;;;;5015390;28;20322;-90
2021/01/16 06:27:06;;;;;;;22.60;14.20;;;0.80;99.90;;;;;;5016250;28;20663;-93
2021/01/16 06:29:34;;;;;;;26.42;13.02;;;0.90;99.90;;;;;;5016431;28;20234;-91
2021/01/16 06:32:06;;;;;;;25.38;13.43;;;0.90;99.90;;;;;;5016008;28;20231;-93
2021/01/16 06:34:34;;;;;;;21.98;11.15;;;0.90;99.90;;;;;;5016222;28;20729;-90
2021/01/16 06:37:07;;;;;;;19.90;12.60;;;0.90;99.90;;;;;;5019914;28;20230;-95
2021/01/16 06:39:37;;;;;;;23.73;11.95;;;0.90;99.90;;;;;;5017124;28;20298;-91
2021/01/16 06:42:11;;;;;;;25.40;14.10;;;0.90;99.90;;;;;;5017803;28;20659;-90
2021/01/16 06:44:37;;;;;;;16.15;10.55;;;0.80;99.90;;;;;;5015942;28;20616;-93
2021/01/16 06:47:05;;;;;;;21.48;14.27;;;0.80;99.90;;;;;;5015164;28;20318;-91
2021/01/16 06:49:32;;;;;;;24.52;13.60;;;0.90;99.90;;;;;;5020750;28;20269;-90
2021/01/16 06:52:00;;;;;;;16.95;11.13;;;0.80;99.90;;;;;;5031530;28;20287;-90
2021/01/16 06:54:29;;;;;;;18.65;11.70;;;0.90;99.90;;;;;;5048188;28;20211;-91
2021/01/16 06:57:05;;;;;;;19.40;11.00;;;0.90;99.90;;;;;;5046808;28;20222;-95
2021/01/16 06:59:38;;;;;;;19.40;10.15;;;0.90;99.90;;;;;;5043625;28;20211;-92
2021/01/16 07:02:23;;;;;;;18.15;11.07;;;0.90;99.90;;;;;;5047091;28;20261;-94
2021/01/16 07:04:52;;;;;;;20.88;11.13;;;0.90;99.90;;;;;;5039222;28;20198;-94
2021/01/16 07:07:31;;;;;;;20.05;11.43;;;0.90;99.90;;;;;;5039261;28;20286;-90
2021/01/16 07:10:07;;;;;;;17.90;11.60;;;0.80;99.90;;;;;;5039301;28;20219;-87
2021/01/16 07:12:42;;;;;;;24.17;13.70;;;0.90;99.90;;;;;;5054381;22;20192;-88
2021/01/16 07:15:10;;;;;;;19.70;11.25;;;1.00;99.90;;;;;;5021326;28;20207;-94
2021/01/16 07:17:38;;;;;;;20.38;11.95;;;1.00;99.90;;;;;;5038807;23;20269;-92
2021/01/16 07:20:06;;;;;;;21.13;12.55;;;1.00;99.90;;;;;;5114508;22;20258;-92
2021/01/16 07:22:37;;;;;;;22.77;13.00;;;1.00;99.90;;;;;;5041319;28;20238;-92
2021/01/16 07:25:06;;;;;;;22.30;12.82;;;0.90;99.90;;;;;;5011726;28;20565;-90
2021/01/16 07:27:34;;;;;;;21.10;11.77;;;0.90;99.90;;;;;;5019421;28;20278;-91
2021/01/16 07:30:04;;;;;;;22.60;12.15;;;0.90;99.90;;;;;;5014741;28;20305;-90
2021/01/16 07:32:42;;;;;;;25.65;13.52;;;0.90;99.90;;;;;;5025756;28;20215;-92
2021/01/16 07:35:11;;;;;;;23.08;13.70;;;0.90;99.90;;;;;;5018667;28;20210;-89
2021/01/16 07:37:43;;;;;;;23.67;10.98;;;0.90;99.90;;;;;;5023162;28;20212;-89
2021/01/16 07:43:49;;;;;;;21.52;14.07;;;1.00;99.90;;;;;;5046237;22;20299;-84
2021/01/16 07:46:20;;;;;;;25.30;13.48;;;1.00;99.90;;;;;;4984323;28;20263;-84
2021/01/16 07:48:49;;;;;;;22.17;13.60;;;1.10;99.90;;;;;;4984795;28;20239;-86
2021/01/16 07:51:16;;;;;;;21.30;12.15;;;1.00;99.90;;;;;;5006662;28;20204;-85
2021/01/16 07:53:43;;;;;;;23.65;16.27;;;1.00;99.90;;;;;;5029095;28;20210;-86
2021/01/16 07:56:20;;;;;;;25.52;14.13;;;1.10;99.90;;;;;;5030565;28;20212;-85
2021/01/16 07:59:15;;;;;;;25.27;16.65;;;1.10;99.90;;;;;;5031615;28;20195;-92
2021/01/16 08:01:55;;;;;;;23.77;14.68;;;1.10;99.90;;;;;;5036963;28;20203;-86
2021/01/16 08:04:24;;;;;;;25.70;16.45;;;1.00;99.90;;;;;;5020700;28;20678;-87
2021/01/16 08:07:05;;;;;;;19.00;11.98;;;1.10;99.90;;;;;;5018368;28;20207;-92
2021/01/16 08:09:57;;;;;;;21.98;14.43;;;1.00;99.90;;;;;;5016817;28;20235;-84
2021/01/16 08:12:25;;;;;;;26.35;16.20;;;1.10;99.90;;;;;;5025355;28;20217;-85
2021/01/16 08:14:52;;;;;;;25.75;16.02;;;1.00;99.90;;;;;;5034924;28;20206;-84
2021/01/16 08:17:22;;;;;;;97.80;47.60;;;1.10;99.90;;;;;;5032899;28;20286;-85
2021/01/16 08:20:07;;;;;;;32.42;18.08;;;1.10;99.90;;;;;;5034345;28;20203;-91
2021/01/16 08:22:38;;;;;;;26.30;15.25;;;1.00;99.90;;;;;;5047969;28;20210;-83
2021/01/16 08:25:06;;;;;;;22.83;14.75;;;1.10;99.90;;;;;;5052582;28;20218;-85
2021/01/16 08:27:35;;;;;;;28.08;13.10;;;1.00;99.90;;;;;;5051120;28;20211;-84
2021/01/16 08:30:14;;;;;;;29.88;13.48;;;1.10;99.90;;;;;;5054131;28;20230;-84
2021/01/16 08:32:54;;;;;;;18.98;13.27;;;1.00;99.90;;;;;;5050214;28;20215;-85
2021/01/16 08:35:22;;;;;;;22.15;13.63;;;1.10;99.90;;;;;;5056436;28;20191;-83
2021/01/16 08:37:50;;;;;;;23.45;11.98;;;1.00;99.90;;;;;;5057378;28;20195;-83
2021/01/16 08:40:32;;;;;;;23.58;11.82;;;1.00;99.90;;;;;;5055696;28;20199;-85
2021/01/16 08:42:58;;;;;;;28.85;14.27;;;1.00;99.90;;;;;;5041737;28;20266;-84
2021/01/16 08:45:25;;;;;;;24.95;13.27;;;1.00;99.90;;;;;;5041238;28;20191;-83
2021/01/16 08:47:52;;;;;;;20.27;11.57;;;1.00;99.90;;;;;;5038653;28;20290;-84
2021/01/16 08:50:21;;;;;;;22.05;14.25;;;1.00;99.90;;;;;;5037246;28;20262;-84
2021/01/16 08:52:47;;;;;;;18.02;10.45;;;0.90;99.90;;;;;;5037946;28;20215;-85
2021/01/16 08:55:14;;;;;;;23.25;14.68;;;1.10;99.90;;;;;;5039716;28;20241;-83
2021/01/16 08:57:41;;;;;;;23.58;12.18;;;1.10;99.90;;;;;;5038304;28;20693;-85
2021/01/16 09:00:18;;;;;;;23.75;13.52;;;1.10;99.90;;;;;;5039179;28;20681;-83
2021/01/16 09:03:03;;;;;;;18.77;10.57;;;1.30;99.90;;;;;;5035981;28;20214;-84
2021/01/16 09:05:32;;;;;;;41.70;27.05;;;1.20;99.90;;;;;;5035087;28;20683;-82
2021/01/16 09:08:00;;;;;;;27.42;16.10;;;1.30;99.90;;;;;;5033686;28;20210;-83
2021/01/16 09:10:31;;;;;;;25.05;14.65;;;1.20;99.90;;;;;;5037299;28;20316;-82
2021/01/16 09:12:59;;;;;;;22.27;12.00;;;1.20;99.90;;;;;;5037877;28;20260;-86
2021/01/16 09:15:27;;;;;;;21.50;11.18;;;1.00;99.90;;;;;;5037670;28;20207;-85
2021/01/16 09:18:08;;;;;;;22.15;13.60;;;1.00;99.90;;;;;;5036962;28;20234;-83
2021/01/16 09:20:37;;;;;;;23.33;13.30;;;1.00;99.90;;;;;;5037239;28;20572;-83
2021/01/16 09:23:27;;;;;;;21.98;16.55;;;1.00;99.90;;;;;;5037405;28;20681;-84
2021/01/16 09:25:56;;;;;;;17.02;11.27;;;1.00;99.90;;;;;;5036332;28;20309;-84
2021/01/16 09:28:54;;;;;;;21.00;12.07;;;1.00;99.90;;;;;;5036946;28;20203;-84
2021/01/16 09:31:26;;;;;;;19.73;12.90;;;1.10;99.90;;;;;;5037947;28;20257;-83
2021/01/16 09:33:55;;;;;;;19.58;11.75;;;1.20;99.90;;;;;;5037281;28;20222;-84
2021/01/16 09:36:41;;;;;;;21.52;12.93;;;1.10;99.90;;;;;;5045100;28;20203;-84
2021/01/16 09:39:23;;;;;;;18.08;10.48;;;1.20;99.90;;;;;;5041066;28;20242;-83
2021/01/16 09:41:51;;;;;;;15.25;10.77;;;1.20;99.90;;;;;;5038510;28;20293;-85
2021/01/16 09:44:52;;;;;;;22.98;12.45;;;1.20;99.90;;;;;;5037626;28;20270;-85
2021/01/16 09:47:43;;;;;;;21.85;12.27;;;1.20;99.90;;;;;;5037187;28;20242;-84
2021/01/16 09:50:12;;;;;;;19.98;14.20;;;1.20;99.90;;;;;;5036803;28;20317;-81
2021/01/16 09:52:53;;;;;;;20.83;11.85;;;1.30;99.90;;;;;;5037672;28;20242;-85
2021/01/16 09:55:26;;;;;;;29.55;14.02;;;1.60;99.90;;;;;;5045035;28;20213;-85
2021/01/16 09:57:53;;;;;;;23.98;13.73;;;1.20;99.90;;;;;;5038300;28;20198;-84
2021/01/16 10:00:27;;;;;;;19.35;12.68;;;1.10;99.90;;;;;;5040575;28;20230;-88
2021/01/16 10:03:04;;;;;;;22.13;13.63;;;1.10;99.90;;;;;;5038170;28;20653;-84
2021/01/16 10:05:33;;;;;;;20.40;13.70;;;1.20;99.90;;;;;;5037523;28;20552;-90
2021/01/16 10:08:02;;;;;;;19.45;12.32;;;1.30;99.90;;;;;;5043284;28;20211;-92
2021/01/16 10:10:44;;;;;;;19.23;11.85;;;1.30;99.90;;;;;;5038488;28;20280;-90
2021/01/16 10:13:12;;;;;;;19.55;12.85;;;1.10;99.90;;;;;;5038380;28;20616;-92
2021/01/16 10:15:50;;;;;;;18.42;12.73;;;1.20;99.90;;;;;;5036487;28;20207;-84
2021/01/16 10:18:19;;;;;;;21.08;13.23;;;1.20;99.90;;;;;;5038416;28;20206;-84
2021/01/16 10:21:01;;;;;;;21.38;12.25;;;1.10;99.90;;;;;;5005651;28;20211;-83
2021/01/16 10:23:30;;;;;;;21.38;12.57;;;1.10;99.90;;;;;;5038104;28;20207;-94
2021/01/16 10:26:06;;;;;;;24.48;15.68;;;1.10;99.90;;;;;;5023337;28;20262;-89
2021/01/16 10:28:35;;;;;;;28.85;16.58;;;1.10;99.90;;;;;;5015679;28;20234;-89
2021/01/16 10:31:06;;;;;;;21.48;14.02;;;1.10;99.90;;;;;;5017186;28;20650;-87
2021/01/16 10:33:41;;;;;;;20.25;13.43;;;1.00;99.90;;;;;;5016373;28;20628;-84
2021/01/16 10:36:10;;;;;;;20.08;12.60;;;0.80;99.90;;;;;;5013283;28;20294;-89
2021/01/16 10:38:44;;;;;;;22.20;13.20;;;0.90;99.90;;;;;;5014864;28;20306;-87
2021/01/16 10:41:12;;;;;;;21.25;12.10;;;1.00;99.90;;;;;;5016459;28;20290;-90
2021/01/16 10:43:39;;;;;;;18.67;11.98;;;1.00;99.90;;;;;;5014786;28;20325;-85
2021/01/16 10:46:10;;;;;;;19.98;12.60;;;1.00;99.90;;;;;;4995024;28;20216;-85
2021/01/16 10:48:42;;;;;;;16.10;10.90;;;1.20;99.90;;;;;;5027650;28;20190;-83
2021/01/16 10:51:11;;;;;;;22.25;14.60;;;1.10;99.90;;;;;;5182155;22;20482;-89
2021/01/16 10:53:39;;;;;;;20.40;13.45;;;1.20;99.90;;;;;;5015509;28;20628;-89
2021/01/16 10:56:14;;;;;;;17.90;12.02;;;1.30;99.90;;;;;;5012284;28;20212;-85
2021/01/16 10:58:41;;;;;;;19.55;12.25;;;1.20;99.90;;;;;;5012789;28;20242;-83
2021/01/16 11:01:09;;;;;;;22.10;12.52;;;1.20;99.90;;;;;;5016514;28;20307;-92
2021/01/16 11:03:36;;;;;;;20.55;10.90;;;1.10;99.90;;;;;;5014246;28;20211;-83
2021/01/16 11:06:07;;;;;;;20.48;10.45;;;1.10;99.90;;;;;;5014592;28;20762;-86
2021/01/16 11:08:35;;;;;;;15.05;11.20;;;1.30;99.90;;;;;;5013851;28;20210;-84
2021/01/16 11:11:22;;;;;;;27.23;12.48;;;1.40;99.90;;;;;;5013646;28;20322;-84
2021/01/16 11:13:50;;;;;;;17.33;10.15;;;1.50;99.90;;;;;;5013733;28;20211;-84
2021/01/16 11:16:19;;;;;;;16.70;10.73;;;1.50;99.90;;;;;;5011839;28;20298;-85
2021/01/16 11:18:48;;;;;;;17.20;10.45;;;1.60;99.90;;;;;;5013896;28;20290;-90
2021/01/16 11:21:48;;;;;;;18.95;11.88;;;1.40;99.90;;;;;;5013716;28;20239;-85
2021/01/16 11:25:07;;;;;;;14.27;9.10;;;1.40;99.90;;;;;;5013723;28;20262;-85
2021/01/16 11:27:35;;;;;;;17.10;10.70;;;1.20;99.90;;;;;;4992837;28;20242;-82
2021/01/16 11:30:07;;;;;;;17.13;9.50;;;1.40;99.90;;;;;;4993546;28;20319;-84
2021/01/16 11:32:36;;;;;;;15.55;9.90;;;1.70;99.90;;;;;;4992584;28;20240;-88
2021/01/16 11:35:07;;;;;;;17.67;10.05;;;1.80;99.90;;;;;;4993845;28;20200;-83
2021/01/16 11:37:45;;;;;;;17.67;9.95;;;1.90;99.90;;;;;;4994499;28;20208;-85
2021/01/16 11:40:22;;;;;;;18.08;10.82;;;1.80;99.90;;;;;;4993927;28;20287;-84
2021/01/16 11:42:51;;;;;;;16.73;9.82;;;1.50;99.90;;;;;;4994323;28;20254;-85
2021/01/16 11:45:20;;;;;;;14.82;9.63;;;1.60;99.90;;;;;;4993674;28;20211;-84
2021/01/16 11:47:51;;;;;;;10.85;8.55;;;1.80;99.90;;;;;;4992895;28;20208;-84
2021/01/16 11:50:18;;;;;;;19.65;9.23;;;2.00;99.90;;;;;;4993624;28;20247;-85
2021/01/16 11:52:45;;;;;;;22.85;12.98;;;2.10;99.90;;;;;;4994449;28;20235;-83
2021/01/16 11:55:13;;;;;;;14.68;9.30;;;2.00;99.90;;;;;;4996849;28;20667;-83
2021/01/16 11:57:41;;;;;;;18.77;11.88;;;2.40;99.90;;;;;;5013346;28;20204;-83
2021/01/16 12:00:08;;;;;;;17.52;9.98;;;2.50;99.90;;;;;;5013186;28;20330;-82
2021/01/16 12:02:36;;;;;;;16.05;10.00;;;2.30;99.90;;;;;;5012270;28;20314;-82
2021/01/16 12:05:05;;;;;;;18.23;10.55;;;2.30;99.90;;;;;;5013600;28;20627;-85
2021/01/16 12:07:32;;;;;;;14.23;11.07;;;2.30;99.90;;;;;;5013167;28;20623;-83
2021/01/16 12:10:03;;;;;;;20.63;11.77;;;2.10;99.90;;;;;;5013206;28;20837;-84
2021/01/16 12:12:31;;;;;;;19.58;11.02;;;2.10;99.90;;;;;;5013265;28;20200;-83
2021/01/16 12:15:00;;;;;;;19.60;12.02;;;2.10;99.90;;;;;;5013291;28;20590;-83
2021/01/16 12:17:29;;;;;;;21.30;13.13;;;2.10;99.90;;;;;;5014415;28;20210;-83
2021/01/16 12:19:56;;;;;;;18.98;11.68;;;2.10;99.90;;;;;;5017425;28;20248;-84
2021/01/16 12:22:28;;;;;;;21.10;10.88;;;1.90;99.90;;;;;;5017551;28;20290;-82
2021/01/16 12:24:55;;;;;;;19.95;11.02;;;2.00;99.90;;;;;;5017550;28;20230;-83
2021/01/16 12:27:22;;;;;;;15.80;10.00;;;2.00;99.90;;;;;;5017848;28;20580;-84
2021/01/16 12:29:54;;;;;;;15.75;11.45;;;2.10;99.90;;;;;;5018250;28;20317;-83
2021/01/16 12:32:21;;;;;;;17.33;10.50;;;2.10;99.90;;;;;;5015595;28;20670;-85
2021/01/16 12:34:49;;;;;;;16.67;11.15;;;2.10;99.90;;;;;;5018337;28;20731;-84
2021/01/16 12:37:28;;;;;;;24.65;12.02;;;2.00;99.90;;;;;;5025065;28;20242;-84
2021/01/16 12:39:55;;;;;;;18.85;11.50;;;2.00;99.90;;;;;;5031855;28;20207;-83
2021/01/16 12:42:22;;;;;;;20.67;12.23;;;1.80;99.90;;;;;;5031717;28;20208;-84
2021/01/16 12:44:48;;;;;;;18.17;12.07;;;1.60;99.90;;;;;;5028255;28;20293;-84
2021/01/16 12:47:19;;;;;;;17.77;12.27;;;1.70;99.90;;;;;;5023010;28;20259;-83
2021/01/16 12:49:53;;;;;;;18.92;11.45;;;1.70;99.90;;;;;;5019440;28;20230;-86
2021/01/16 12:52:24;;;;;;;19.48;11.68;;;1.60;99.90;;;;;;5027786;28;20251;-84
2021/01/16 12:54:59;;;;;;;21.30;12.40;;;1.60;99.90;;;;;;5025192;28;20668;-86
2021/01/16 12:57:29;;;;;;;15.27;8.50;;;1.70;99.90;;;;;;5021289;28;20202;-83
2021/01/16 12:59:56;;;;;;;21.50;11.63;;;1.90;99.90;;;;;;5020432;28;20188;-82